Catalpa, Virginia
Current Conditions -  °F | °C
As of 12:55 AM on Sunday 23 Nov 2014 (Local Time) from KCJR Reporting Station
Scattered Clouds Scattered Clouds  
Wind Chill: 39°   Ceiling: Unl
Heat Index: 43°   Visibility: 10mi
Dew Point: 19°   Wind: 7mph
Humidity: 39%   Direction: 210°SSW
Pressure: 30.23"   Gusts: NA
Location:  38.467°N, 77.9818°W
Report Text: KCJR 230555Z AUTO 21006KT 10SM SCT110 06/M07 A3023 RMK AO2
Loading
Personal Weather Stations






























Interactive Weather Map New forecast layout! Learn more

10-Day Weather Forecast

Advertisements
Track Severe Weather on mobile